createdAt,value
2022-10-08T00:01:16.857Z,97173.69
2022-10-08T00:03:44.705Z,97182.09
2022-10-08T00:06:12.765Z,97176.78
2022-10-08T00:08:40.461Z,97178.13
2022-10-08T00:11:08.440Z,97180.06
2022-10-08T00:13:42.080Z,97172.28
2022-10-08T00:16:10.120Z,97162.78
2022-10-08T00:18:36.478Z,97162.84
2022-10-08T00:21:07.131Z,97160.16
2022-10-08T00:23:34.379Z,97170.94
2022-10-08T00:26:03.180Z,97159.03
2022-10-08T00:28:29.687Z,97165.50
2022-10-08T00:30:57.055Z,97166.19
2022-10-08T00:33:23.431Z,97162.59
2022-10-08T00:35:49.980Z,97158.56
2022-10-08T00:38:16.312Z,97151.78
2022-10-08T00:40:43.582Z,97141.50
2022-10-08T00:43:16.771Z,97141.22
2022-10-08T00:45:46.143Z,97142.28
2022-10-08T00:48:20.929Z,97143.91
2022-10-08T00:50:47.754Z,97138.31
2022-10-08T00:53:14.246Z,97131.31
2022-10-08T00:55:43.969Z,97122.03
2022-10-08T00:58:22.947Z,97128.63
2022-10-08T01:00:49.934Z,97124.88
2022-10-08T01:03:16.379Z,97121.41
2022-10-08T01:05:47.209Z,97121.97
2022-10-08T01:08:27.013Z,97115.69
2022-10-08T01:10:58.346Z,97118.16
2022-10-08T01:13:43.355Z,97115.16
2022-10-08T01:16:16.948Z,97107.66
2022-10-08T01:18:54.549Z,97112.19
2022-10-08T01:21:38.707Z,97108.22
2022-10-08T01:24:05.008Z,97106.53
2022-10-08T01:26:46.157Z,97108.03
2022-10-08T01:29:18.483Z,97099.88
2022-10-08T01:31:47.898Z,97097.91
2022-10-08T01:34:19.977Z,97100.53
2022-10-08T01:36:48.893Z,97105.72
2022-10-08T01:39:19.367Z,97109.00
2022-10-08T01:41:49.323Z,97101.94
2022-10-08T01:44:19.561Z,97100.31
2022-10-08T01:46:46.470Z,97092.38
2022-10-08T01:49:15.362Z,97092.53
2022-10-08T01:51:47.171Z,97098.25
2022-10-08T01:54:16.613Z,97090.38
2022-10-08T01:56:45.929Z,97095.50
2022-10-08T01:59:15.663Z,97100.72
2022-10-08T02:01:51.475Z,97098.09
2022-10-08T02:04:35.245Z,97098.53
2022-10-08T02:07:09.224Z,97087.91
2022-10-08T02:09:40.351Z,97086.19
2022-10-08T02:12:07.353Z,97085.56
2022-10-08T02:14:35.621Z,97082.84
2022-10-08T02:17:18.318Z,97081.50
2022-10-08T02:19:49.835Z,97076.25
2022-10-08T02:22:17.461Z,97070.31
2022-10-08T02:24:51.092Z,97066.28
2022-10-08T02:27:19.684Z,97069.56
2022-10-08T02:29:51.679Z,97068.44
2022-10-08T02:32:38.398Z,97071.56
2022-10-08T02:35:18.322Z,97068.44
2022-10-08T02:37:51.165Z,97070.53
2022-10-08T02:40:18.423Z,97075.66
2022-10-08T02:42:50.073Z,97085.00
2022-10-08T02:45:28.387Z,97091.56
2022-10-08T02:47:59.042Z,97090.09
2022-10-08T02:50:27.336Z,97076.50
2022-10-08T02:52:53.797Z,97082.28
2022-10-08T02:55:22.546Z,97087.03
2022-10-08T02:57:54.579Z,97072.63
2022-10-08T03:00:21.244Z,97081.50
2022-10-08T03:02:55.941Z,97084.25
2022-10-08T03:05:22.604Z,97087.69
2022-10-08T03:07:51.078Z,97073.63
2022-10-08T03:10:18.301Z,97079.25
2022-10-08T03:12:44.879Z,97078.56
2022-10-08T03:15:13.820Z,97065.78
2022-10-08T03:17:42.665Z,97073.00
2022-10-08T03:20:10.049Z,97063.19
2022-10-08T03:22:37.051Z,97064.50
2022-10-08T03:25:03.505Z,97074.69
2022-10-08T03:27:30.008Z,97069.78
2022-10-08T03:29:59.272Z,97071.44
2022-10-08T03:32:26.334Z,97078.00
2022-10-08T03:34:53.283Z,97080.28
2022-10-08T03:37:20.225Z,97083.22
2022-10-08T03:39:46.787Z,97085.69
2022-10-08T03:42:13.219Z,97075.72
2022-10-08T03:44:39.541Z,97078.66
2022-10-08T03:47:05.861Z,97075.34
2022-10-08T03:49:32.520Z,97078.13
2022-10-08T03:51:58.823Z,97073.88
2022-10-08T03:54:25.201Z,97085.53
2022-10-08T03:56:51.547Z,97077.16
2022-10-08T03:59:17.867Z,97092.44
2022-10-08T04:01:44.242Z,97090.78
2022-10-08T04:04:10.594Z,97085.38
2022-10-08T04:06:36.903Z,97082.94
2022-10-08T04:09:03.304Z,97086.53
2022-10-08T04:11:29.723Z,97081.94
2022-10-08T04:13:56.078Z,97089.16
2022-10-08T04:16:22.603Z,97083.56
2022-10-08T04:18:49.180Z,97092.13
2022-10-08T04:21:16.549Z,97085.19
2022-10-08T04:23:43.699Z,97087.34
2022-10-08T04:26:11.285Z,97081.09
2022-10-08T04:28:39.228Z,97091.59
2022-10-08T04:31:07.321Z,97090.94
2022-10-08T04:33:35.323Z,97093.75
2022-10-08T04:36:01.843Z,97090.78
2022-10-08T04:38:28.696Z,97091.13
2022-10-08T04:41:02.573Z,97099.00
2022-10-08T04:43:29.123Z,97096.69
2022-10-08T04:45:55.441Z,97099.16
2022-10-08T04:48:21.758Z,97107.19
2022-10-08T04:50:48.070Z,97103.75
2022-10-08T04:53:16.397Z,97099.94
2022-10-08T04:55:42.708Z,97098.94
2022-10-08T04:58:09.128Z,97092.72
2022-10-08T05:00:35.743Z,97103.72
2022-10-08T05:03:02.124Z,97097.97
2022-10-08T05:05:28.549Z,97099.94
2022-10-08T05:07:56.749Z,97097.00
2022-10-08T05:10:26.580Z,97101.91
2022-10-08T05:12:52.954Z,97100.25
2022-10-08T05:15:19.273Z,97109.47
2022-10-08T05:17:45.583Z,97110.81
2022-10-08T05:20:11.917Z,97110.97
2022-10-08T05:22:38.272Z,97113.06
2022-10-08T05:25:04.823Z,97116.38
2022-10-08T05:27:31.276Z,97116.03
2022-10-08T05:29:57.630Z,97109.81
2022-10-08T05:32:23.980Z,97111.75
2022-10-08T05:34:50.326Z,97110.97
2022-10-08T05:37:16.669Z,97122.75
2022-10-08T05:39:42.988Z,97123.25
2022-10-08T05:42:09.367Z,97130.16
2022-10-08T05:44:37.688Z,97133.41
2022-10-08T05:47:04.318Z,97124.22
2022-10-08T05:49:30.753Z,97120.78
2022-10-08T05:51:58.576Z,97133.94
2022-10-08T05:54:24.912Z,97141.34
2022-10-08T05:56:51.227Z,97132.78
2022-10-08T05:59:21.427Z,97141.31
2022-10-08T06:01:47.839Z,97143.13
2022-10-08T06:04:14.435Z,97146.72
2022-10-08T06:06:42.172Z,97146.53
2022-10-08T06:09:09.160Z,97156.22
2022-10-08T06:11:36.591Z,97149.16
2022-10-08T06:14:03.569Z,97145.88
2022-10-08T06:16:30.484Z,97151.09
2022-10-08T06:18:56.857Z,97141.09
2022-10-08T06:21:24.395Z,97146.47
2022-10-08T06:23:52.124Z,97154.84
2022-10-08T06:26:19.291Z,97158.66
2022-10-08T06:28:46.063Z,97160.44
2022-10-08T06:31:12.497Z,97162.38
2022-10-08T06:33:39.119Z,97171.25
2022-10-08T06:36:13.731Z,97167.69
2022-10-08T06:38:40.084Z,97165.84
2022-10-08T06:41:06.417Z,97162.38
2022-10-08T06:43:32.731Z,97167.44
2022-10-08T06:46:00.234Z,97172.00
2022-10-08T06:48:27.629Z,97169.38
2022-10-08T06:51:07.314Z,97175.47
2022-10-08T06:53:34.291Z,97182.03
2022-10-08T06:56:01.959Z,97183.38
2022-10-08T06:58:28.682Z,97183.50
2022-10-08T07:01:05.591Z,97180.00
2022-10-08T07:03:32.093Z,97189.56
2022-10-08T07:06:06.690Z,97189.25
2022-10-08T07:08:33.420Z,97182.34
2022-10-08T07:11:03.616Z,97188.69
2022-10-08T07:13:29.919Z,97194.94
2022-10-08T07:16:22.406Z,97197.88
2022-10-08T07:18:49.675Z,97203.00
2022-10-08T07:21:16.748Z,97198.16
2022-10-08T07:23:43.073Z,97192.06
2022-10-08T07:26:13.790Z,97195.03
2022-10-08T07:28:41.262Z,97197.28
2022-10-08T07:31:09.762Z,97200.59
2022-10-08T07:33:36.122Z,97206.72
2022-10-08T07:36:09.302Z,97201.41
2022-10-08T07:38:35.704Z,97200.84
2022-10-08T07:41:02.017Z,97199.38
2022-10-08T07:43:28.523Z,97207.81
2022-10-08T07:45:55.034Z,97215.28
2022-10-08T07:48:22.485Z,97210.75
2022-10-08T07:50:48.859Z,97222.09
2022-10-08T07:53:15.229Z,97212.84
2022-10-08T07:55:41.540Z,97213.53
2022-10-08T07:58:07.891Z,97217.22
2022-10-08T08:00:34.289Z,97216.13
2022-10-08T08:03:00.698Z,97216.63
2022-10-08T08:05:27.014Z,97229.28
2022-10-08T08:07:53.577Z,97223.81
2022-10-08T08:10:19.933Z,97230.06
2022-10-08T08:12:46.584Z,97230.91
2022-10-08T08:15:13.140Z,97230.84
2022-10-08T08:17:39.740Z,97228.28
2022-10-08T08:20:06.326Z,97220.56
2022-10-08T08:22:32.668Z,97225.22
2022-10-08T08:24:58.973Z,97224.13
2022-10-08T08:27:25.349Z,97224.63
2022-10-08T08:29:51.649Z,97231.34
2022-10-08T08:32:17.957Z,97233.75
2022-10-08T08:34:44.270Z,97228.81
2022-10-08T08:37:10.620Z,97223.22
2022-10-08T08:39:36.923Z,97231.91
2022-10-08T08:42:12.030Z,97222.88
2022-10-08T08:44:42.875Z,97231.81
2022-10-08T08:47:15.176Z,97233.16
2022-10-08T08:49:41.455Z,97240.44
2022-10-08T08:52:08.944Z,97242.47
2022-10-08T08:54:35.488Z,97244.19
2022-10-08T08:57:21.801Z,97241.56
2022-10-08T08:59:49.651Z,97252.47
2022-10-08T09:02:34.465Z,97247.56
2022-10-08T09:05:03.360Z,97249.44
2022-10-08T09:07:36.644Z,97256.66
2022-10-08T09:10:06.624Z,97258.31
2022-10-08T09:12:46.354Z,97257.94
2022-10-08T09:15:17.773Z,97257.94
2022-10-08T09:17:44.503Z,97259.22
2022-10-08T09:20:14.613Z,97251.59
2022-10-08T09:22:41.145Z,97256.50
2022-10-08T09:25:21.365Z,97247.16
2022-10-08T09:27:49.313Z,97241.75
2022-10-08T09:30:24.969Z,97241.78
2022-10-08T09:32:52.972Z,97246.38
2022-10-08T09:35:19.430Z,97241.78
2022-10-08T09:37:46.446Z,97244.25
2022-10-08T09:40:12.829Z,97238.34
2022-10-08T09:42:39.685Z,97239.50
2022-10-08T09:45:26.069Z,97240.59
2022-10-08T09:48:11.300Z,97236.78
2022-10-08T09:50:37.822Z,97238.00
2022-10-08T09:53:05.734Z,97237.63
2022-10-08T09:55:35.359Z,97244.56
2022-10-08T09:58:03.521Z,97231.72
2022-10-08T10:00:37.968Z,97243.91
2022-10-08T10:03:05.310Z,97238.81
2022-10-08T10:05:34.778Z,97241.00
2022-10-08T10:08:01.580Z,97244.69
2022-10-08T10:10:28.838Z,97250.03
2022-10-08T10:12:58.777Z,97246.94
2022-10-08T10:15:34.264Z,97243.69
2022-10-08T10:18:02.424Z,97244.75
2022-10-08T10:20:31.161Z,97238.59
2022-10-08T10:22:59.549Z,97240.09
2022-10-08T10:25:28.972Z,97227.47
2022-10-08T10:27:59.445Z,97218.34
2022-10-08T10:30:26.058Z,97224.72
2022-10-08T10:33:10.949Z,97227.19
2022-10-08T10:35:41.357Z,97220.13
2022-10-08T10:38:12.369Z,97216.28
2022-10-08T10:40:41.494Z,97215.66
2022-10-08T10:43:13.890Z,97212.38
2022-10-08T10:45:44.284Z,97208.41
2022-10-08T10:48:13.728Z,97208.91
2022-10-08T10:50:55.778Z,97207.06
2022-10-08T10:53:30.481Z,97209.94
2022-10-08T10:56:04.773Z,97203.44
2022-10-08T10:58:31.127Z,97201.63
2022-10-08T11:01:06.657Z,97197.28
2022-10-08T11:03:43.456Z,97204.84
2022-10-08T11:06:09.775Z,97193.81
2022-10-08T11:08:44.368Z,97203.38
2022-10-08T11:11:19.848Z,97196.16
2022-10-08T11:13:46.299Z,97198.47
2022-10-08T11:16:15.488Z,97181.59
2022-10-08T11:18:53.150Z,97197.06
2022-10-08T11:21:19.476Z,97189.94
2022-10-08T11:24:11.598Z,97189.16
2022-10-08T11:26:56.494Z,97190.19
2022-10-08T11:29:31.869Z,97189.78
2022-10-08T11:31:58.725Z,97191.56
2022-10-08T11:34:31.085Z,97190.03
2022-10-08T11:37:16.310Z,97195.63
2022-10-08T11:39:51.662Z,97191.91
2022-10-08T11:42:56.731Z,97201.78
2022-10-08T11:45:23.172Z,97204.09
2022-10-08T11:47:51.812Z,97194.25
2022-10-08T11:50:37.491Z,97204.06
2022-10-08T11:53:09.720Z,97197.97
2022-10-08T11:55:36.873Z,97204.81
2022-10-08T11:58:16.370Z,97200.50
2022-10-08T12:00:42.724Z,97201.38
2022-10-08T12:03:21.438Z,97213.16
2022-10-08T12:05:51.192Z,97208.25
2022-10-08T12:08:37.793Z,97204.44
2022-10-08T12:11:23.096Z,97207.91
2022-10-08T12:14:09.383Z,97211.91
2022-10-08T12:16:48.201Z,97205.03
2022-10-08T12:19:33.031Z,97204.34
2022-10-08T12:22:00.375Z,97209.16
2022-10-08T12:24:38.968Z,97206.75
2022-10-08T12:27:17.451Z,97194.16
2022-10-08T12:29:54.845Z,97204.28
2022-10-08T12:32:23.398Z,97196.88
2022-10-08T12:34:49.929Z,97199.72
2022-10-08T12:37:19.331Z,97203.94
2022-10-08T12:39:45.911Z,97207.59
2022-10-08T12:42:26.961Z,97207.00
2022-10-08T12:45:14.960Z,97199.47
2022-10-08T12:47:47.654Z,97199.00
2022-10-08T12:50:17.195Z,97196.50
2022-10-08T12:52:43.551Z,97195.22
2022-10-08T12:55:16.258Z,97195.34
2022-10-08T12:57:42.665Z,97200.28
2022-10-08T13:00:10.924Z,97205.81
2022-10-08T13:02:43.560Z,97204.28
2022-10-08T13:05:25.469Z,97207.44
2022-10-08T13:07:51.864Z,97202.59
2022-10-08T13:10:20.417Z,97206.50
2022-10-08T13:13:02.903Z,97212.75
2022-10-08T13:15:30.662Z,97220.28
2022-10-08T13:17:56.985Z,97214.97
2022-10-08T13:20:23.898Z,97226.63
2022-10-08T13:22:50.488Z,97237.00
2022-10-08T13:25:42.929Z,97232.66
2022-10-08T13:28:16.799Z,97230.56
2022-10-08T13:30:46.643Z,97230.56
2022-10-08T13:33:17.459Z,97231.56
2022-10-08T13:35:44.411Z,97229.09
2022-10-08T13:38:17.948Z,97227.16
2022-10-08T13:40:48.976Z,97231.34
2022-10-08T13:43:15.362Z,97237.63
2022-10-08T13:45:41.677Z,97240.63
2022-10-08T13:48:11.989Z,97240.44
2022-10-08T13:50:45.705Z,97242.06
2022-10-08T13:53:13.028Z,97242.09
2022-10-08T13:55:41.417Z,97245.06
2022-10-08T13:58:07.897Z,97243.59
2022-10-08T14:00:35.992Z,97247.53
2022-10-08T14:03:02.602Z,97246.94
2022-10-08T14:05:30.908Z,97242.56
2022-10-08T14:08:00.029Z,97250.66
2022-10-08T14:10:26.541Z,97246.34
2022-10-08T14:12:53.616Z,97246.13
2022-10-08T14:15:20.611Z,97239.34
2022-10-08T14:17:49.445Z,97244.13
2022-10-08T14:20:16.257Z,97239.22
2022-10-08T14:22:42.643Z,97238.22
2022-10-08T14:25:20.835Z,97244.97
2022-10-08T14:27:47.734Z,97250.69
2022-10-08T14:30:15.478Z,97252.31
2022-10-08T14:32:41.806Z,97259.06
2022-10-08T14:35:08.560Z,97251.28
2022-10-08T14:37:35.244Z,97256.59
2022-10-08T14:40:02.219Z,97258.28
2022-10-08T14:42:28.525Z,97253.97
2022-10-08T14:44:54.908Z,97252.97
2022-10-08T14:47:21.211Z,97251.34
2022-10-08T14:49:47.573Z,97254.97
2022-10-08T14:52:13.927Z,97249.28
2022-10-08T14:54:40.335Z,97254.19
2022-10-08T14:57:06.892Z,97251.94
2022-10-08T14:59:37.547Z,97251.50
2022-10-08T15:02:06.323Z,97252.13
2022-10-08T15:04:32.784Z,97242.72
2022-10-08T15:06:59.164Z,97249.66
2022-10-08T15:09:25.483Z,97249.28
2022-10-08T15:11:51.792Z,97250.06
2022-10-08T15:14:18.127Z,97252.06
2022-10-08T15:16:44.535Z,97262.28
2022-10-08T15:19:10.907Z,97266.34
2022-10-08T15:21:37.280Z,97257.78
2022-10-08T15:24:03.700Z,97266.78
2022-10-08T15:26:30.048Z,97260.63
2022-10-08T15:28:56.443Z,97267.97
2022-10-08T15:31:27.998Z,97269.53
2022-10-08T15:33:56.043Z,97272.78
2022-10-08T15:36:22.362Z,97278.47
2022-10-08T15:38:54.051Z,97269.91
2022-10-08T15:41:20.428Z,97268.66
2022-10-08T15:43:47.126Z,97278.44
2022-10-08T15:46:19.930Z,97281.63
2022-10-08T15:48:56.145Z,97280.44
2022-10-08T15:51:23.526Z,97285.66
2022-10-08T15:53:50.208Z,97292.69
2022-10-08T15:56:16.840Z,97295.13
2022-10-08T15:58:50.710Z,97295.34
2022-10-08T16:01:18.308Z,97303.34
2022-10-08T16:03:46.542Z,97299.66
2022-10-08T16:06:14.143Z,97320.34
2022-10-08T16:08:41.330Z,97311.06
2022-10-08T16:11:14.031Z,97317.81
2022-10-08T16:13:40.668Z,97321.28
2022-10-08T16:16:11.385Z,97329.94
2022-10-08T16:18:40.444Z,97330.91
2022-10-08T16:21:07.321Z,97325.78
2022-10-08T16:23:34.634Z,97329.78
2022-10-08T16:26:01.433Z,97328.50
2022-10-08T16:28:30.657Z,97330.59
2022-10-08T16:30:58.424Z,97333.38
2022-10-08T16:33:25.452Z,97344.66
2022-10-08T16:35:52.333Z,97349.88
2022-10-08T16:38:21.063Z,97348.78
2022-10-08T16:40:47.373Z,97353.25
2022-10-08T16:43:14.128Z,97351.44
2022-10-08T16:45:40.982Z,97363.91
2022-10-08T16:48:08.370Z,97361.72
2022-10-08T16:50:38.714Z,97367.91
2022-10-08T16:53:06.081Z,97371.56
2022-10-08T16:55:33.966Z,97369.31
2022-10-08T16:58:00.301Z,97377.84
2022-10-08T17:00:28.781Z,97377.84
2022-10-08T17:02:55.140Z,97387.78
2022-10-08T17:05:21.577Z,97385.69
2022-10-08T17:07:47.923Z,97391.16
2022-10-08T17:10:14.505Z,97394.72
2022-10-08T17:12:41.290Z,97398.88
2022-10-08T17:15:08.361Z,97403.81
2022-10-08T17:17:34.693Z,97403.72
2022-10-08T17:20:01.058Z,97412.00
2022-10-08T17:22:27.466Z,97411.09
2022-10-08T17:24:53.836Z,97415.00
2022-10-08T17:27:20.192Z,97424.28
2022-10-08T17:29:46.539Z,97425.38
2022-10-08T17:32:12.950Z,97421.97
2022-10-08T17:34:39.453Z,97427.97
2022-10-08T17:37:05.801Z,97433.75
2022-10-08T17:39:32.607Z,97433.13
2022-10-08T17:42:01.662Z,97437.44
2022-10-08T17:44:30.000Z,97449.91
2022-10-08T17:46:56.367Z,97454.31
2022-10-08T17:49:22.676Z,97452.56
2022-10-08T17:51:50.918Z,97452.25
2022-10-08T17:54:24.525Z,97460.41
2022-10-08T17:56:50.921Z,97464.91
2022-10-08T17:59:18.913Z,97471.06
2022-10-08T18:01:46.053Z,97475.53
2022-10-08T18:04:13.551Z,97469.13
2022-10-08T18:06:46.051Z,97477.53
2022-10-08T18:09:13.906Z,97485.16
2022-10-08T18:11:41.793Z,97494.59
2022-10-08T18:14:21.656Z,97500.50
2022-10-08T18:16:48.902Z,97502.84
2022-10-08T18:19:16.029Z,97498.25
2022-10-08T18:21:42.365Z,97505.16
2022-10-08T18:24:08.755Z,97511.75
2022-10-08T18:26:37.275Z,97515.75
2022-10-08T18:29:05.314Z,97518.69
2022-10-08T18:31:33.936Z,97516.38
2022-10-08T18:34:01.687Z,97516.53
2022-10-08T18:36:29.197Z,97533.84
2022-10-08T18:39:05.948Z,97535.31
2022-10-08T18:41:38.160Z,97535.97
2022-10-08T18:44:06.030Z,97543.38
2022-10-08T18:46:34.577Z,97533.16
2022-10-08T18:49:01.376Z,97546.50
2022-10-08T18:51:28.473Z,97543.53
2022-10-08T18:53:58.784Z,97548.63
2022-10-08T18:56:28.616Z,97558.78
2022-10-08T18:58:55.788Z,97559.13
2022-10-08T19:01:26.516Z,97559.44
2022-10-08T19:03:55.776Z,97563.22
2022-10-08T19:06:23.031Z,97566.66
2022-10-08T19:08:49.416Z,97568.09
2022-10-08T19:11:17.595Z,97565.31
2022-10-08T19:13:44.555Z,97571.06
2022-10-08T19:16:15.175Z,97577.16
2022-10-08T19:18:51.410Z,97577.13
2022-10-08T19:21:18.221Z,97588.94
2022-10-08T19:23:46.292Z,97586.28
2022-10-08T19:26:13.053Z,97583.50
2022-10-08T19:28:40.040Z,97589.41
2022-10-08T19:31:12.955Z,97599.38
2022-10-08T19:33:39.402Z,97602.31
2022-10-08T19:36:05.911Z,97599.94
2022-10-08T19:38:32.541Z,97603.50
2022-10-08T19:40:58.896Z,97610.28
2022-10-08T19:43:25.206Z,97618.31
2022-10-08T19:45:51.536Z,97627.53
2022-10-08T19:48:17.841Z,97627.47
2022-10-08T19:50:44.231Z,97628.06
2022-10-08T19:53:10.577Z,97632.31
2022-10-08T19:55:40.126Z,97645.81
2022-10-08T19:58:06.497Z,97642.09
2022-10-08T20:00:32.886Z,97654.84
2022-10-08T20:02:59.239Z,97661.03
2022-10-08T20:05:25.767Z,97666.81
2022-10-08T20:07:57.102Z,97664.81
2022-10-08T20:10:23.417Z,97666.31
2022-10-08T20:12:49.988Z,97672.97
2022-10-08T20:15:16.851Z,97671.25
2022-10-08T20:17:43.165Z,97674.53
2022-10-08T20:20:31.655Z,97677.00
2022-10-08T20:22:57.092Z,97678.13
2022-10-08T20:25:23.550Z,97686.84
2022-10-08T20:27:50.606Z,97688.03
2022-10-08T20:30:18.053Z,97688.31
2022-10-08T20:32:45.814Z,97681.66
2022-10-08T20:35:12.370Z,97684.06
2022-10-08T20:37:38.739Z,97687.91
2022-10-08T20:40:05.442Z,97686.50
2022-10-08T20:42:32.396Z,97695.28
2022-10-08T20:44:58.766Z,97691.28
2022-10-08T20:47:25.072Z,97693.53
2022-10-08T20:49:51.460Z,97697.44
2022-10-08T20:52:17.786Z,97694.97
2022-10-08T20:54:44.322Z,97696.38
2022-10-08T20:57:10.650Z,97697.38
2022-10-08T20:59:37.007Z,97704.72
2022-10-08T21:02:05.071Z,97704.31
2022-10-08T21:04:37.471Z,97705.81
2022-10-08T21:07:03.853Z,97707.78
2022-10-08T21:09:30.185Z,97707.81
2022-10-08T21:12:02.721Z,97702.44
2022-10-08T21:14:30.234Z,97712.22
2022-10-08T21:16:56.695Z,97709.50
2022-10-08T21:19:23.271Z,97707.94
2022-10-08T21:21:49.699Z,97708.78
2022-10-08T21:24:16.843Z,97715.28
2022-10-08T21:26:43.326Z,97720.09
2022-10-08T21:29:11.480Z,97724.94
2022-10-08T21:31:38.736Z,97722.47
2022-10-08T21:34:16.577Z,97727.28
2022-10-08T21:36:44.592Z,97723.00
2022-10-08T21:39:13.877Z,97726.31
2022-10-08T21:41:40.314Z,97736.78
2022-10-08T21:44:09.092Z,97732.69
2022-10-08T21:46:37.672Z,97736.94
2022-10-08T21:49:08.117Z,97739.13
2022-10-08T21:51:34.639Z,97744.47
2022-10-08T21:54:01.731Z,97744.31
2022-10-08T21:56:29.648Z,97739.78
2022-10-08T21:59:00.088Z,97744.19
2022-10-08T22:01:28.481Z,97746.63
2022-10-08T22:03:55.793Z,97750.94
2022-10-08T22:06:22.609Z,97743.91
2022-10-08T22:08:49.447Z,97748.03
2022-10-08T22:11:15.781Z,97748.31
2022-10-08T22:13:42.240Z,97750.47
2022-10-08T22:16:10.766Z,97753.00
2022-10-08T22:18:48.741Z,97753.53
2022-10-08T22:21:16.400Z,97753.84
2022-10-08T22:23:42.766Z,97757.47
2022-10-08T22:26:11.056Z,97757.63
2022-10-08T22:28:37.858Z,97755.19
2022-10-08T22:31:07.563Z,97758.19
2022-10-08T22:33:34.519Z,97752.25
2022-10-08T22:36:11.204Z,97756.38
2022-10-08T22:38:38.661Z,97756.66
2022-10-08T22:41:06.213Z,97754.38
2022-10-08T22:43:32.814Z,97757.84
2022-10-08T22:46:03.201Z,97762.13
2022-10-08T22:48:29.879Z,97766.28
2022-10-08T22:51:00.204Z,97764.47
2022-10-08T22:53:27.693Z,97767.63
2022-10-08T22:55:53.999Z,97767.53
2022-10-08T22:58:25.357Z,97759.28
2022-10-08T23:00:58.928Z,97779.56
2022-10-08T23:03:25.470Z,97771.09
2022-10-08T23:06:00.009Z,97764.63
2022-10-08T23:08:26.313Z,97771.25
2022-10-08T23:10:56.369Z,97768.91
2022-10-08T23:13:22.712Z,97773.19
2022-10-08T23:16:08.781Z,97772.09
2022-10-08T23:18:37.108Z,97770.59
2022-10-08T23:21:04.566Z,97775.47
2022-10-08T23:23:31.605Z,97776.91
2022-10-08T23:26:00.925Z,97778.34
2022-10-08T23:28:29.386Z,97774.19
2022-10-08T23:31:02.622Z,97781.41
2022-10-08T23:33:28.977Z,97786.69
2022-10-08T23:35:55.573Z,97784.41
2022-10-08T23:38:22.786Z,97790.06
2022-10-08T23:40:52.133Z,97776.19
2022-10-08T23:43:18.516Z,97786.19
2022-10-08T23:45:45.006Z,97778.63
2022-10-08T23:48:11.536Z,97778.84
2022-10-08T23:50:38.141Z,97779.88
2022-10-08T23:53:05.865Z,97773.56
2022-10-08T23:55:32.307Z,97784.84
2022-10-08T23:58:04.803Z,97789.41
